createdAt,value
2023-03-01T00:01:58.670Z,37.29
2023-03-01T00:04:26.139Z,38.43
2023-03-01T00:06:53.289Z,38.21
2023-03-01T00:09:20.475Z,38.14
2023-03-01T00:11:47.914Z,39.32
2023-03-01T00:14:17.251Z,39.03
2023-03-01T00:16:45.390Z,38.40
2023-03-01T00:19:13.897Z,38.80
2023-03-01T00:21:41.349Z,38.69
2023-03-01T00:24:08.535Z,38.24
2023-03-01T00:26:36.168Z,37.99
2023-03-01T00:29:03.522Z,38.80
2023-03-01T00:31:31.820Z,37.96
2023-03-01T00:34:05.087Z,39.43
2023-03-01T00:36:33.616Z,40.73
2023-03-01T00:39:01.431Z,39.48
2023-03-01T00:41:28.631Z,38.61
2023-03-01T00:43:55.975Z,38.41
2023-03-01T00:46:24.916Z,38.89
2023-03-01T00:48:52.158Z,39.89
2023-03-01T00:51:20.368Z,39.45
2023-03-01T00:53:48.602Z,38.89
2023-03-01T00:56:16.027Z,38.30
2023-03-01T00:58:44.719Z,37.86
2023-03-01T01:01:18.181Z,37.86
2023-03-01T01:03:45.537Z,37.61
2023-03-01T01:06:23.402Z,37.85
2023-03-01T01:08:50.881Z,37.67
2023-03-01T01:11:18.297Z,37.54
2023-03-01T01:13:46.042Z,38.23
2023-03-01T01:16:13.696Z,39.24
2023-03-01T01:18:41.541Z,38.37
2023-03-01T01:21:10.296Z,39.22
2023-03-01T01:23:38.096Z,39.04
2023-03-01T01:26:06.497Z,38.29
2023-03-01T01:28:33.709Z,39.25
2023-03-01T01:31:00.930Z,38.82
2023-03-01T01:33:28.385Z,39.13
2023-03-01T01:35:55.762Z,39.57
2023-03-01T01:38:23.121Z,40.84
2023-03-01T01:40:51.339Z,42.10
2023-03-01T01:43:29.344Z,43.10
2023-03-01T01:45:58.337Z,41.75
2023-03-01T01:48:25.775Z,41.60
2023-03-01T01:50:55.972Z,43.18
2023-03-01T01:53:23.561Z,41.91
2023-03-01T01:55:53.482Z,40.95
2023-03-01T01:58:20.790Z,40.09
2023-03-01T02:00:48.781Z,39.92
2023-03-01T02:03:18.941Z,41.86
2023-03-01T02:05:55.454Z,39.80
2023-03-01T02:08:24.165Z,39.62
2023-03-01T02:10:51.607Z,39.71
2023-03-01T02:13:18.771Z,39.82
2023-03-01T02:15:45.964Z,41.88
2023-03-01T02:18:15.709Z,41.35
2023-03-01T02:20:50.841Z,40.64
2023-03-01T02:23:18.339Z,40.80
2023-03-01T02:25:52.258Z,40.65
2023-03-01T02:28:22.788Z,42.60
2023-03-01T02:31:09.089Z,40.78
2023-03-01T02:33:38.060Z,40.19
2023-03-01T02:36:06.394Z,40.89
2023-03-01T02:38:33.557Z,40.39
2023-03-01T02:41:00.998Z,39.62
2023-03-01T02:43:28.889Z,39.39
2023-03-01T02:45:58.491Z,39.32
2023-03-01T02:48:25.978Z,39.37
2023-03-01T02:51:02.701Z,40.97
2023-03-01T02:53:30.141Z,39.45
2023-03-01T02:55:57.315Z,39.55
2023-03-01T02:58:24.714Z,40.77
2023-03-01T03:00:52.444Z,39.94
2023-03-01T03:03:20.600Z,40.88
2023-03-01T03:05:48.685Z,41.73
2023-03-01T03:08:25.157Z,40.56
2023-03-01T03:10:52.691Z,40.89
2023-03-01T03:13:20.255Z,40.07
2023-03-01T03:15:47.388Z,40.10
2023-03-01T03:18:15.871Z,40.03
2023-03-01T03:20:43.516Z,41.39
2023-03-01T03:23:10.740Z,40.89
2023-03-01T03:25:38.809Z,41.29
2023-03-01T03:28:10.610Z,41.16
2023-03-01T03:30:39.911Z,40.60
2023-03-01T03:33:07.653Z,41.17
2023-03-01T03:35:35.921Z,41.58
2023-03-01T03:38:06.722Z,41.20
2023-03-01T03:40:35.504Z,42.65
2023-03-01T03:43:03.602Z,42.23
2023-03-01T03:45:30.838Z,41.69
2023-03-01T03:47:58.313Z,40.71
2023-03-01T03:50:25.583Z,40.62
2023-03-01T03:52:52.706Z,40.92
2023-03-01T03:55:20.419Z,41.16
2023-03-01T03:57:52.430Z,41.58
2023-03-01T04:00:20.768Z,41.48
2023-03-01T04:02:48.452Z,42.80
2023-03-01T04:05:16.273Z,40.98
2023-03-01T04:07:43.766Z,41.87
2023-03-01T04:10:12.255Z,42.18
2023-03-01T04:12:39.469Z,43.43
2023-03-01T04:15:14.060Z,42.61
2023-03-01T04:17:42.355Z,41.88
2023-03-01T04:20:12.070Z,43.54
2023-03-01T04:22:39.725Z,43.67
2023-03-01T04:25:07.905Z,44.30
2023-03-01T04:27:35.181Z,44.16
2023-03-01T04:30:02.725Z,45.13
2023-03-01T04:32:30.881Z,44.91
2023-03-01T04:34:58.053Z,43.43
2023-03-01T04:37:28.416Z,43.44
2023-03-01T04:39:55.859Z,42.75
2023-03-01T04:42:22.965Z,44.42
2023-03-01T04:44:52.299Z,45.69
2023-03-01T04:47:19.730Z,45.11
2023-03-01T04:49:46.863Z,44.48
2023-03-01T04:52:14.076Z,45.24
2023-03-01T04:54:41.555Z,45.71
2023-03-01T04:57:08.722Z,46.86
2023-03-01T04:59:37.157Z,46.10
2023-03-01T05:02:04.657Z,45.90
2023-03-01T05:04:31.942Z,44.74
2023-03-01T05:06:59.840Z,45.88
2023-03-01T05:09:27.367Z,44.35
2023-03-01T05:11:54.627Z,43.33
2023-03-01T05:14:21.817Z,42.46
2023-03-01T05:16:49.269Z,41.97
2023-03-01T05:19:16.528Z,41.77
2023-03-01T05:22:07.135Z,41.71
2023-03-01T05:24:35.603Z,42.48
2023-03-01T05:27:02.743Z,42.46
2023-03-01T05:29:30.376Z,42.96
2023-03-01T05:32:02.084Z,42.00
2023-03-01T05:34:30.834Z,42.25
2023-03-01T05:36:58.286Z,41.65
2023-03-01T05:39:26.784Z,42.75
2023-03-01T05:41:54.722Z,42.21
2023-03-01T05:44:22.158Z,42.72
2023-03-01T05:46:49.303Z,42.45
2023-03-01T05:49:17.049Z,43.73
2023-03-01T05:51:44.770Z,41.89
2023-03-01T05:54:11.934Z,41.93
2023-03-01T05:56:39.225Z,41.67
2023-03-01T05:59:06.707Z,42.48
2023-03-01T06:01:34.302Z,43.73
2023-03-01T06:04:01.810Z,42.99
2023-03-01T06:06:29.427Z,44.05
2023-03-01T06:08:56.629Z,45.06
2023-03-01T06:11:24.057Z,44.09
2023-03-01T06:13:51.222Z,43.18
2023-03-01T06:16:18.425Z,44.40
2023-03-01T06:18:46.047Z,44.19
2023-03-01T06:21:13.258Z,43.21
2023-03-01T06:23:40.380Z,42.83
2023-03-01T06:26:08.880Z,44.05
2023-03-01T06:28:36.290Z,42.78
2023-03-01T06:31:03.706Z,42.64
2023-03-01T06:33:31.174Z,43.37
2023-03-01T06:35:58.340Z,42.22
2023-03-01T06:38:25.532Z,41.91
2023-03-01T06:40:54.146Z,40.85
2023-03-01T06:43:21.659Z,41.94
2023-03-01T06:45:48.828Z,42.35
2023-03-01T06:48:16.329Z,44.43
2023-03-01T06:50:43.491Z,44.60
2023-03-01T06:53:10.725Z,43.38
2023-03-01T06:55:38.132Z,44.38
2023-03-01T06:58:05.308Z,46.99
2023-03-01T07:00:32.559Z,47.96
2023-03-01T07:03:00.979Z,47.28
2023-03-01T07:05:28.426Z,46.77
2023-03-01T07:07:56.540Z,47.19
2023-03-01T07:10:24.109Z,45.58
2023-03-01T07:12:51.337Z,44.62
2023-03-01T07:15:18.492Z,44.66
2023-03-01T07:17:48.646Z,46.01
2023-03-01T07:20:16.286Z,45.87
2023-03-01T07:22:43.540Z,46.15
2023-03-01T07:25:11.057Z,47.40
2023-03-01T07:27:38.288Z,46.93
2023-03-01T07:30:05.738Z,46.63
2023-03-01T07:32:33.209Z,46.14
2023-03-01T07:35:00.405Z,46.82
2023-03-01T07:37:27.568Z,46.70
2023-03-01T07:39:55.198Z,45.89
2023-03-01T07:42:22.360Z,47.01
2023-03-01T07:44:49.517Z,47.76
2023-03-01T07:47:16.921Z,46.75
2023-03-01T07:49:44.087Z,45.31
2023-03-01T07:52:12.412Z,44.96
2023-03-01T07:54:39.905Z,46.96
2023-03-01T07:57:07.034Z,45.66
2023-03-01T07:59:34.529Z,44.89
2023-03-01T08:02:01.968Z,46.41
2023-03-01T08:04:29.490Z,47.34
2023-03-01T08:06:56.653Z,45.85
2023-03-01T08:09:23.814Z,44.73
2023-03-01T08:11:51.385Z,44.36
2023-03-01T08:14:18.586Z,46.39
2023-03-01T08:16:45.735Z,44.62
2023-03-01T08:19:13.140Z,44.75
2023-03-01T08:21:40.298Z,44.44
2023-03-01T08:24:07.837Z,44.11
2023-03-01T08:26:35.301Z,43.57
2023-03-01T08:29:02.595Z,42.33
2023-03-01T08:31:34.113Z,43.29
2023-03-01T08:34:01.806Z,43.85
2023-03-01T08:36:33.275Z,44.11
2023-03-01T08:39:00.876Z,43.78
2023-03-01T08:41:28.344Z,43.72
2023-03-01T08:43:59.635Z,42.72
2023-03-01T08:46:31.393Z,43.16
2023-03-01T08:48:59.087Z,42.29
2023-03-01T08:51:26.418Z,40.90
2023-03-01T08:53:53.607Z,41.64
2023-03-01T08:56:21.040Z,40.19
2023-03-01T08:58:48.784Z,39.01
2023-03-01T09:01:16.929Z,39.55
2023-03-01T09:03:44.424Z,39.42
2023-03-01T09:06:11.818Z,39.92
2023-03-01T09:08:39.498Z,40.23
2023-03-01T09:11:07.478Z,41.17
2023-03-01T09:13:34.841Z,40.20
2023-03-01T09:16:02.627Z,38.98
2023-03-01T09:18:30.091Z,38.56
2023-03-01T09:21:08.184Z,38.91
2023-03-01T09:23:37.419Z,39.27
2023-03-01T09:26:04.687Z,40.08
2023-03-01T09:28:31.880Z,39.02
2023-03-01T09:31:00.478Z,38.23
2023-03-01T09:33:28.312Z,38.09
2023-03-01T09:36:02.645Z,37.00
2023-03-01T09:38:30.391Z,37.78
2023-03-01T09:40:57.582Z,38.59
2023-03-01T09:43:31.281Z,37.65
2023-03-01T09:46:06.819Z,37.87
2023-03-01T09:48:34.725Z,39.84
2023-03-01T09:51:02.653Z,38.38
2023-03-01T09:53:32.986Z,37.63
2023-03-01T09:56:01.015Z,38.91
2023-03-01T09:58:30.685Z,38.87
2023-03-01T10:00:59.176Z,38.00
2023-03-01T10:03:36.285Z,36.70
2023-03-01T10:06:06.560Z,36.75
2023-03-01T10:08:54.184Z,36.96
2023-03-01T10:11:29.693Z,37.37
2023-03-01T10:14:02.876Z,36.82
2023-03-01T10:17:08.448Z,36.49
2023-03-01T10:19:46.016Z,35.84
2023-03-01T10:22:32.490Z,39.11
2023-03-01T10:25:01.104Z,36.79
2023-03-01T10:27:35.859Z,37.32
2023-03-01T10:30:21.989Z,37.44
2023-03-01T10:32:51.240Z,37.25
2023-03-01T10:35:29.342Z,37.23
2023-03-01T10:38:07.136Z,36.20
2023-03-01T10:40:35.019Z,38.22
2023-03-01T10:43:06.090Z,38.02
2023-03-01T10:45:36.666Z,37.19
2023-03-01T10:48:10.340Z,38.79
2023-03-01T10:50:40.336Z,37.45
2023-03-01T10:53:17.996Z,37.46
2023-03-01T10:55:45.136Z,37.32
2023-03-01T10:58:15.515Z,37.49
2023-03-01T11:01:02.410Z,37.23
2023-03-01T11:03:33.860Z,37.21
2023-03-01T11:06:01.029Z,37.02
2023-03-01T11:08:35.127Z,37.36
2023-03-01T11:11:07.285Z,37.78
2023-03-01T11:13:34.483Z,37.22
2023-03-01T11:16:06.885Z,36.89
2023-03-01T11:18:46.838Z,38.15
2023-03-01T11:21:14.526Z,36.90
2023-03-01T11:23:42.038Z,36.50
2023-03-01T11:26:11.525Z,35.49
2023-03-01T11:28:39.807Z,35.40
2023-03-01T11:31:09.961Z,35.53
2023-03-01T11:33:49.292Z,35.65
2023-03-01T11:36:36.324Z,35.61
2023-03-01T11:39:04.767Z,36.26
2023-03-01T11:41:33.521Z,35.60
2023-03-01T11:44:02.526Z,36.07
2023-03-01T11:46:33.034Z,35.97
2023-03-01T11:49:10.127Z,36.69
2023-03-01T11:51:40.252Z,36.90
2023-03-01T11:54:11.221Z,34.50
2023-03-01T11:56:45.256Z,34.49
2023-03-01T11:59:31.083Z,36.20
2023-03-01T12:01:58.257Z,35.50
2023-03-01T12:04:25.838Z,36.21
2023-03-01T12:07:02.556Z,35.35
2023-03-01T12:09:35.772Z,36.40
2023-03-01T12:12:02.848Z,35.05
2023-03-01T12:14:36.005Z,34.48
2023-03-01T12:17:07.238Z,35.06
2023-03-01T12:19:37.742Z,34.61
2023-03-01T12:22:05.535Z,34.68
2023-03-01T12:24:51.656Z,34.03
2023-03-01T12:27:21.865Z,33.87
2023-03-01T12:29:52.116Z,33.58
2023-03-01T12:32:22.490Z,33.04
2023-03-01T12:35:25.162Z,33.51
2023-03-01T12:37:52.575Z,33.34
2023-03-01T12:40:38.373Z,32.53
2023-03-01T12:43:14.635Z,32.45
2023-03-01T12:46:00.660Z,33.32
2023-03-01T12:48:31.830Z,34.24
2023-03-01T12:51:00.862Z,34.87
2023-03-01T12:53:28.269Z,34.80
2023-03-01T12:56:07.227Z,35.59
2023-03-01T12:58:48.613Z,35.39
2023-03-01T13:01:22.470Z,34.46
2023-03-01T13:04:08.589Z,35.53
2023-03-01T13:07:02.068Z,34.35
2023-03-01T13:09:32.431Z,35.02
2023-03-01T13:11:59.572Z,34.63
2023-03-01T13:14:26.716Z,33.26
2023-03-01T13:16:54.193Z,33.57
2023-03-01T13:19:25.039Z,34.25
2023-03-01T13:21:55.134Z,33.58
2023-03-01T13:24:28.520Z,34.09
2023-03-01T13:27:08.034Z,33.82
2023-03-01T13:29:47.862Z,34.46
2023-03-01T13:32:38.002Z,34.69
2023-03-01T13:35:33.084Z,34.87
2023-03-01T13:38:20.701Z,34.56
2023-03-01T13:40:51.261Z,34.93
2023-03-01T13:43:28.965Z,34.80
2023-03-01T13:45:56.456Z,35.62
2023-03-01T13:48:24.572Z,33.33
2023-03-01T13:50:52.853Z,35.02
2023-03-01T13:53:20.916Z,35.08
2023-03-01T13:55:58.668Z,34.96
2023-03-01T13:58:28.768Z,35.37
2023-03-01T14:00:57.052Z,35.08
2023-03-01T14:03:24.593Z,33.89
2023-03-01T14:06:11.295Z,34.44
2023-03-01T14:08:44.244Z,33.94
2023-03-01T14:11:14.559Z,34.52
2023-03-01T14:13:48.062Z,33.79
2023-03-01T14:16:25.443Z,33.69
2023-03-01T14:19:05.132Z,33.34
2023-03-01T14:21:32.343Z,35.05
2023-03-01T14:24:00.125Z,34.16
2023-03-01T14:26:27.558Z,34.21
2023-03-01T14:28:54.815Z,34.84
2023-03-01T14:31:52.041Z,34.62
2023-03-01T14:34:21.466Z,34.07
2023-03-01T14:36:48.883Z,34.78
2023-03-01T14:39:26.120Z,35.10
2023-03-01T14:41:53.633Z,34.38
2023-03-01T14:44:23.952Z,34.01
2023-03-01T14:46:55.206Z,34.47
2023-03-01T14:49:23.421Z,33.86
2023-03-01T14:52:09.262Z,34.23
2023-03-01T14:54:48.584Z,35.62
2023-03-01T14:57:20.262Z,35.63
2023-03-01T14:59:48.778Z,35.29
2023-03-01T15:02:20.317Z,35.32
2023-03-01T15:04:48.089Z,36.03
2023-03-01T15:07:15.264Z,35.83
2023-03-01T15:09:42.484Z,35.42
2023-03-01T15:12:33.376Z,35.54
2023-03-01T15:15:04.788Z,36.36
2023-03-01T15:17:33.608Z,35.53
2023-03-01T15:20:01.307Z,35.03
2023-03-01T15:22:28.496Z,34.52
2023-03-01T15:24:55.941Z,35.58
2023-03-01T15:27:24.514Z,35.25
2023-03-01T15:29:58.922Z,35.89
2023-03-01T15:32:31.168Z,35.33
2023-03-01T15:35:01.893Z,34.94
2023-03-01T15:37:38.828Z,35.57
2023-03-01T15:40:32.263Z,35.04
2023-03-01T15:43:00.331Z,35.88
2023-03-01T15:45:28.876Z,35.33
2023-03-01T15:48:00.122Z,35.64
2023-03-01T15:50:28.772Z,35.16
2023-03-01T15:52:56.308Z,35.09
2023-03-01T15:55:24.760Z,36.15
2023-03-01T15:57:58.803Z,35.53
2023-03-01T16:00:25.989Z,34.78
2023-03-01T16:02:53.541Z,34.36
2023-03-01T16:05:25.265Z,34.21
2023-03-01T16:07:53.018Z,34.24
2023-03-01T16:10:20.709Z,35.34
2023-03-01T16:12:48.480Z,34.58
2023-03-01T16:15:20.236Z,34.00
2023-03-01T16:17:47.814Z,34.44
2023-03-01T16:20:27.904Z,33.92
2023-03-01T16:22:55.954Z,33.73
2023-03-01T16:25:23.103Z,33.55
2023-03-01T16:27:50.831Z,33.73
2023-03-01T16:30:19.560Z,33.78
2023-03-01T16:32:47.214Z,34.03
2023-03-01T16:35:15.437Z,33.86
2023-03-01T16:37:43.222Z,33.80
2023-03-01T16:40:17.453Z,33.91
2023-03-01T16:42:44.883Z,34.28
2023-03-01T16:45:22.872Z,34.12
2023-03-01T16:47:51.175Z,34.25
2023-03-01T16:50:18.567Z,34.37
2023-03-01T16:52:45.806Z,34.61
2023-03-01T16:55:13.297Z,34.51
2023-03-01T16:57:41.653Z,34.56
2023-03-01T17:00:14.171Z,34.99
2023-03-01T17:02:42.371Z,35.02
2023-03-01T17:05:10.879Z,35.07
2023-03-01T17:07:38.600Z,35.03
2023-03-01T17:10:07.053Z,35.10
2023-03-01T17:12:34.917Z,35.01
2023-03-01T17:15:02.214Z,35.50
2023-03-01T17:17:29.720Z,35.49
2023-03-01T17:19:57.313Z,35.74
2023-03-01T17:22:24.731Z,35.95
2023-03-01T17:24:52.151Z,36.40
2023-03-01T17:27:19.598Z,36.07
2023-03-01T17:29:46.964Z,36.21
2023-03-01T17:32:14.679Z,36.08
2023-03-01T17:34:41.963Z,36.27
2023-03-01T17:37:09.155Z,36.35
2023-03-01T17:39:36.696Z,36.14
2023-03-01T17:42:05.206Z,36.71
2023-03-01T17:44:35.442Z,37.25
2023-03-01T17:47:03.591Z,37.04
2023-03-01T17:49:30.969Z,36.89
2023-03-01T17:51:58.281Z,37.44
2023-03-01T17:54:25.865Z,37.14
2023-03-01T17:56:53.225Z,37.70
2023-03-01T17:59:20.558Z,37.49
2023-03-01T18:01:48.223Z,37.27
2023-03-01T18:04:15.975Z,37.35
2023-03-01T18:06:43.207Z,38.68
2023-03-01T18:09:11.848Z,37.65
2023-03-01T18:11:39.595Z,38.54
2023-03-01T18:14:06.978Z,38.47
2023-03-01T18:16:34.630Z,38.65
2023-03-01T18:19:02.663Z,38.57
2023-03-01T18:21:30.595Z,39.14
2023-03-01T18:23:59.584Z,38.93
2023-03-01T18:26:27.824Z,39.73
2023-03-01T18:28:58.206Z,39.47
2023-03-01T18:31:25.740Z,38.98
2023-03-01T18:33:54.904Z,39.33
2023-03-01T18:36:23.484Z,39.82
2023-03-01T18:38:50.705Z,38.98
2023-03-01T18:41:18.301Z,38.33
2023-03-01T18:43:45.649Z,38.57
2023-03-01T18:46:12.909Z,38.50
2023-03-01T18:48:40.591Z,38.66
2023-03-01T18:51:11.805Z,39.72
2023-03-01T18:53:39.101Z,39.16
2023-03-01T18:56:07.603Z,40.12
2023-03-01T18:58:34.903Z,39.52
2023-03-01T19:01:04.317Z,39.13
2023-03-01T19:03:32.037Z,39.22
2023-03-01T19:06:01.378Z,39.24
2023-03-01T19:08:29.372Z,39.45
2023-03-01T19:11:02.256Z,39.91
2023-03-01T19:13:30.472Z,39.99
2023-03-01T19:16:04.240Z,39.30
2023-03-01T19:18:31.705Z,39.68
2023-03-01T19:21:03.995Z,40.90
2023-03-01T19:23:34.966Z,40.89
2023-03-01T19:26:03.714Z,41.94
2023-03-01T19:28:31.137Z,41.68
2023-03-01T19:31:11.412Z,41.75
2023-03-01T19:33:41.562Z,41.69
2023-03-01T19:36:09.579Z,41.57
2023-03-01T19:38:37.139Z,41.55
2023-03-01T19:41:05.719Z,41.12
2023-03-01T19:43:32.995Z,40.99
2023-03-01T19:46:00.240Z,41.02
2023-03-01T19:48:28.419Z,41.20
2023-03-01T19:50:55.860Z,41.69
2023-03-01T19:53:23.179Z,41.88
2023-03-01T19:55:53.140Z,42.09
2023-03-01T19:58:20.355Z,42.63
2023-03-01T20:00:47.541Z,42.19
2023-03-01T20:03:15.310Z,42.65
2023-03-01T20:05:43.784Z,43.12
2023-03-01T20:08:11.033Z,43.36
2023-03-01T20:10:38.664Z,42.50
2023-03-01T20:13:06.103Z,42.28
2023-03-01T20:15:33.233Z,42.54
2023-03-01T20:18:00.695Z,41.85
2023-03-01T20:20:28.052Z,42.55
2023-03-01T20:22:55.241Z,42.24
2023-03-01T20:25:22.979Z,41.74
2023-03-01T20:27:51.784Z,41.35
2023-03-01T20:30:18.979Z,41.26
2023-03-01T20:32:46.627Z,41.41
2023-03-01T20:35:13.850Z,42.71
2023-03-01T20:37:41.032Z,42.29
2023-03-01T20:40:09.607Z,41.97
2023-03-01T20:42:36.883Z,42.81
2023-03-01T20:45:04.678Z,42.66
2023-03-01T20:47:32.338Z,41.75
2023-03-01T20:50:01.567Z,41.13
2023-03-01T20:52:32.339Z,41.24
2023-03-01T20:55:04.966Z,41.74
2023-03-01T20:57:32.177Z,41.24
2023-03-01T20:59:59.310Z,40.88
2023-03-01T21:02:26.816Z,41.44
2023-03-01T21:04:54.152Z,42.29
2023-03-01T21:07:21.282Z,43.03
2023-03-01T21:09:48.768Z,41.55
2023-03-01T21:12:16.091Z,41.82
2023-03-01T21:14:43.288Z,42.44
2023-03-01T21:17:11.882Z,42.95
2023-03-01T21:19:39.892Z,44.54
2023-03-01T21:22:07.200Z,45.26
2023-03-01T21:24:34.665Z,47.56
2023-03-01T21:27:06.518Z,47.77
2023-03-01T21:29:34.467Z,46.82
2023-03-01T21:32:04.739Z,45.58
2023-03-01T21:34:32.351Z,45.02
2023-03-01T21:36:59.480Z,43.75
2023-03-01T21:39:28.948Z,44.30
2023-03-01T21:41:56.641Z,44.64
2023-03-01T21:44:24.545Z,44.62
2023-03-01T21:46:52.326Z,45.23
2023-03-01T21:49:19.648Z,44.44
2023-03-01T21:51:46.806Z,45.75
2023-03-01T21:54:15.477Z,44.87
2023-03-01T21:56:43.163Z,44.05
2023-03-01T21:59:20.766Z,43.67
2023-03-01T22:01:48.484Z,43.69
2023-03-01T22:04:16.104Z,43.97
2023-03-01T22:06:44.190Z,44.88
2023-03-01T22:09:18.796Z,44.77
2023-03-01T22:11:48.714Z,44.64
2023-03-01T22:14:17.036Z,44.06
2023-03-01T22:16:45.639Z,45.61
2023-03-01T22:19:13.706Z,45.94
2023-03-01T22:21:41.556Z,45.50
2023-03-01T22:24:08.848Z,45.31
2023-03-01T22:26:37.699Z,44.77
2023-03-01T22:29:06.515Z,44.54
2023-03-01T22:31:33.731Z,44.75
2023-03-01T22:34:01.423Z,44.06
2023-03-01T22:36:28.690Z,43.47
2023-03-01T22:39:00.351Z,44.24
2023-03-01T22:41:29.269Z,43.27
2023-03-01T22:43:56.489Z,44.16
2023-03-01T22:46:26.741Z,43.59
2023-03-01T22:48:54.219Z,43.99
2023-03-01T22:51:31.157Z,43.56
2023-03-01T22:53:58.751Z,44.03
2023-03-01T22:56:28.900Z,43.81
2023-03-01T22:58:57.727Z,43.89
2023-03-01T23:01:26.035Z,43.53
2023-03-01T23:03:53.217Z,43.61
2023-03-01T23:06:21.515Z,43.49
2023-03-01T23:08:52.463Z,43.12
2023-03-01T23:11:19.901Z,42.85
2023-03-01T23:13:47.128Z,43.47
2023-03-01T23:16:15.020Z,42.99
2023-03-01T23:18:42.471Z,42.85
2023-03-01T23:21:14.167Z,42.60
2023-03-01T23:23:41.712Z,42.53
2023-03-01T23:26:09.208Z,42.33
2023-03-01T23:28:40.367Z,42.30
2023-03-01T23:31:09.461Z,42.22
2023-03-01T23:33:39.405Z,43.29
2023-03-01T23:36:18.725Z,43.11
2023-03-01T23:38:46.686Z,43.41
2023-03-01T23:41:14.697Z,43.96
2023-03-01T23:43:45.499Z,43.78
2023-03-01T23:46:14.418Z,42.85
2023-03-01T23:48:42.434Z,43.25
2023-03-01T23:51:09.591Z,42.81
2023-03-01T23:53:38.044Z,42.67
2023-03-01T23:56:05.486Z,41.84
2023-03-01T23:58:32.610Z,41.65
